createdAt,value
2022-12-17T00:02:26.715Z,66.65
2022-12-17T00:05:11.601Z,68.85
2022-12-17T00:07:56.707Z,63.78
2022-12-17T00:10:41.453Z,62.67
2022-12-17T00:13:37.270Z,56.58
2022-12-17T00:16:22.915Z,63.97
2022-12-17T00:19:08.131Z,72.03
2022-12-17T00:21:54.355Z,62.72
2022-12-17T00:24:41.041Z,69.90
2022-12-17T00:27:27.646Z,61.83
2022-12-17T00:30:12.494Z,64.07
2022-12-17T00:32:57.615Z,71.28
2022-12-17T00:35:42.289Z,68.97
2022-12-17T00:38:33.543Z,65.70
2022-12-17T00:41:18.436Z,65.88
2022-12-17T00:44:03.203Z,71.50
2022-12-17T00:46:48.663Z,77.03
2022-12-17T00:49:33.980Z,68.78
2022-12-17T00:52:18.781Z,65.93
2022-12-17T00:55:03.741Z,58.13
2022-12-17T00:57:48.412Z,65.90
2022-12-17T01:00:33.974Z,63.75
2022-12-17T01:03:28.676Z,64.95
2022-12-17T01:06:14.138Z,65.82
2022-12-17T01:08:58.977Z,63.45
2022-12-17T01:11:44.410Z,67.93
2022-12-17T01:14:29.712Z,63.95
2022-12-17T01:17:14.629Z,62.78
2022-12-17T01:20:02.167Z,73.97
2022-12-17T01:22:46.917Z,72.65
2022-12-17T01:25:31.589Z,70.45
2022-12-17T01:28:16.702Z,62.88
2022-12-17T01:31:01.473Z,67.28
2022-12-17T01:33:46.874Z,61.70
2022-12-17T01:36:32.236Z,62.58
2022-12-17T01:39:17.237Z,70.65
2022-12-17T01:42:01.935Z,71.38
2022-12-17T01:45:08.777Z,65.65
2022-12-17T01:47:58.724Z,69.10
2022-12-17T01:50:47.656Z,67.85
2022-12-17T01:53:35.371Z,67.30
2022-12-17T01:56:21.176Z,59.38
2022-12-17T01:59:07.055Z,76.20
2022-12-17T02:01:51.855Z,68.03
2022-12-17T02:04:37.012Z,67.78
2022-12-17T02:07:45.165Z,67.75
2022-12-17T02:10:52.263Z,73.53
2022-12-17T02:13:45.684Z,65.25
2022-12-17T02:16:45.880Z,65.30
2022-12-17T02:20:10.172Z,72.57
2022-12-17T02:23:25.213Z,69.40
2022-12-17T02:26:15.342Z,70.03
2022-12-17T02:29:04.776Z,75.25
2022-12-17T02:31:51.643Z,73.22
2022-12-17T02:34:36.680Z,70.95
2022-12-17T02:37:29.820Z,68.07
2022-12-17T02:40:27.127Z,74.25
2022-12-17T02:43:12.095Z,70.35
2022-12-17T02:45:57.202Z,71.80
2022-12-17T02:48:43.253Z,73.20
2022-12-17T02:51:29.758Z,71.65
2022-12-17T02:54:14.644Z,63.47
2022-12-17T02:56:59.555Z,70.22
2022-12-17T02:59:44.447Z,66.82
2022-12-17T03:02:29.342Z,65.65
2022-12-17T03:05:42.937Z,63.05
2022-12-17T03:08:19.557Z,71.70
2022-12-17T03:11:04.265Z,66.70
2022-12-17T03:13:57.942Z,65.38
2022-12-17T03:16:43.102Z,73.75
2022-12-17T03:19:28.603Z,64.07
2022-12-17T03:22:13.855Z,68.38
2022-12-17T03:25:13.330Z,58.50
2022-12-17T03:27:58.476Z,67.20
2022-12-17T03:30:48.651Z,65.43
2022-12-17T03:33:34.607Z,63.85
2022-12-17T03:36:24.846Z,62.60
2022-12-17T03:39:09.663Z,63.38
2022-12-17T03:41:54.695Z,66.20
2022-12-17T03:44:41.691Z,69.63
2022-12-17T03:47:26.408Z,61.67
2022-12-17T03:50:11.233Z,66.40
2022-12-17T03:52:56.109Z,66.60
2022-12-17T03:55:40.951Z,61.15
2022-12-17T03:58:25.845Z,67.85
2022-12-17T04:01:22.213Z,65.70
2022-12-17T04:04:07.469Z,65.20
2022-12-17T04:06:52.075Z,63.88
2022-12-17T04:09:37.426Z,65.13
2022-12-17T04:12:22.731Z,63.75
2022-12-17T04:15:07.527Z,68.50
2022-12-17T04:17:52.430Z,63.42
2022-12-17T04:20:37.595Z,72.00
2022-12-17T04:23:22.312Z,62.50
2022-12-17T04:26:07.134Z,63.35
2022-12-17T04:29:00.368Z,64.75
2022-12-17T04:31:45.736Z,68.95
2022-12-17T04:34:30.748Z,63.85
2022-12-17T04:37:15.580Z,69.68
2022-12-17T04:40:00.454Z,63.75
2022-12-17T04:42:45.284Z,57.58
2022-12-17T04:45:30.242Z,65.57
2022-12-17T04:48:25.869Z,68.05
2022-12-17T04:51:11.376Z,71.78
2022-12-17T04:53:56.390Z,64.68
2022-12-17T04:56:41.265Z,64.43
2022-12-17T04:59:26.090Z,60.63
2022-12-17T05:02:11.140Z,63.90
2022-12-17T05:04:56.378Z,63.65
2022-12-17T05:07:37.810Z,70.20
2022-12-17T05:10:23.532Z,71.00
2022-12-17T05:13:15.789Z,63.08
2022-12-17T05:16:02.914Z,66.47
2022-12-17T05:18:47.816Z,66.40
2022-12-17T05:21:33.570Z,72.40
2022-12-17T05:24:18.801Z,70.13
2022-12-17T05:27:03.665Z,65.25
2022-12-17T05:29:49.064Z,66.72
2022-12-17T05:32:33.903Z,68.63
2022-12-17T05:35:18.788Z,67.78
2022-12-17T05:38:03.773Z,73.45
2022-12-17T05:40:48.676Z,57.10
2022-12-17T05:43:33.760Z,70.60
2022-12-17T05:46:19.281Z,69.25
2022-12-17T05:49:04.468Z,70.35
2022-12-17T05:51:49.822Z,66.18
2022-12-17T05:54:34.615Z,65.72
2022-12-17T05:57:19.563Z,69.68
2022-12-17T06:00:04.396Z,65.45
2022-12-17T06:02:49.316Z,76.85
2022-12-17T06:05:34.360Z,72.18
2022-12-17T06:08:27.011Z,62.63
2022-12-17T06:11:12.776Z,58.35
2022-12-17T06:13:58.180Z,65.78
2022-12-17T06:16:42.956Z,65.35
2022-12-17T06:19:28.009Z,73.25
2022-12-17T06:22:12.963Z,71.30
2022-12-17T06:24:57.776Z,71.82
2022-12-17T06:27:42.998Z,70.88
2022-12-17T06:30:28.362Z,67.70
2022-12-17T06:33:22.826Z,65.20
2022-12-17T06:36:07.865Z,69.40
2022-12-17T06:38:52.743Z,67.85
2022-12-17T06:41:38.018Z,69.75
2022-12-17T06:44:23.272Z,66.45
2022-12-17T06:47:08.155Z,69.43
2022-12-17T06:49:57.947Z,69.35
2022-12-17T06:55:30.749Z,60.67
2022-12-17T06:58:17.706Z,69.15
2022-12-17T07:01:03.537Z,69.78
2022-12-17T07:03:48.453Z,68.28
2022-12-17T07:06:33.747Z,70.43
2022-12-17T07:09:19.096Z,76.60
2022-12-17T07:12:03.947Z,75.85
2022-12-17T07:14:49.034Z,72.88
2022-12-17T07:17:34.004Z,67.18
2022-12-17T07:20:19.020Z,70.10
2022-12-17T07:23:03.851Z,67.60
2022-12-17T07:25:48.673Z,73.45
2022-12-17T07:28:33.529Z,65.32
2022-12-17T07:31:18.453Z,78.68
2022-12-17T07:34:03.595Z,76.78
2022-12-17T07:36:48.844Z,82.40
2022-12-17T07:39:35.901Z,82.15
2022-12-17T07:42:20.765Z,82.28
2022-12-17T07:45:05.902Z,79.55
2022-12-17T07:47:50.864Z,77.68
2022-12-17T07:50:35.766Z,81.65
2022-12-17T07:53:22.198Z,88.40
2022-12-17T07:56:03.708Z,76.43
2022-12-17T07:58:49.495Z,91.47
2022-12-17T08:01:34.296Z,76.55
2022-12-17T08:04:19.468Z,82.10
2022-12-17T08:07:09.477Z,84.03
2022-12-17T08:09:57.329Z,82.93
2022-12-17T08:12:42.157Z,86.57
2022-12-17T08:15:27.484Z,86.30
2022-12-17T08:18:22.971Z,81.15
2022-12-17T08:21:11.465Z,84.95
2022-12-17T08:23:56.385Z,79.40
2022-12-17T08:26:45.819Z,77.15
2022-12-17T08:29:34.022Z,81.55
2022-12-17T08:32:19.415Z,85.50
2022-12-17T08:35:04.374Z,83.90
2022-12-17T08:37:49.979Z,88.35
2022-12-17T08:40:35.339Z,75.97
2022-12-17T08:43:20.064Z,82.05
2022-12-17T08:46:10.541Z,79.13
2022-12-17T08:48:53.006Z,82.88
2022-12-17T08:51:40.740Z,78.97
2022-12-17T08:54:26.119Z,64.95
2022-12-17T08:57:10.557Z,74.25
2022-12-17T08:59:55.561Z,74.75
2022-12-17T09:02:41.005Z,74.80
2022-12-17T09:05:26.977Z,76.43
2022-12-17T09:08:24.397Z,80.25
2022-12-17T09:11:10.282Z,74.10
2022-12-17T09:13:56.082Z,75.97
2022-12-17T09:16:41.697Z,60.92
2022-12-17T09:19:29.514Z,80.68
2022-12-17T09:22:14.507Z,78.43
2022-12-17T09:24:59.298Z,78.55
2022-12-17T09:27:44.673Z,70.50
2022-12-17T09:30:30.580Z,72.57
2022-12-17T09:33:15.790Z,77.15
2022-12-17T09:36:01.266Z,79.97
2022-12-17T09:39:00.681Z,79.97
2022-12-17T09:42:12.577Z,76.63
2022-12-17T09:45:14.302Z,73.57
2022-12-17T09:48:21.203Z,69.30
2022-12-17T09:51:09.384Z,70.90
2022-12-17T09:54:09.817Z,72.85
2022-12-17T09:57:03.219Z,70.07
2022-12-17T09:59:52.774Z,71.68
2022-12-17T10:02:41.310Z,69.00
2022-12-17T10:05:43.060Z,72.82
2022-12-17T10:08:32.297Z,73.45
2022-12-17T10:11:32.703Z,73.30
2022-12-17T10:14:21.847Z,66.87
2022-12-17T10:17:11.738Z,73.50
2022-12-17T10:20:00.365Z,70.22
2022-12-17T10:22:45.716Z,76.25
2022-12-17T10:25:37.830Z,71.70
2022-12-17T10:28:38.628Z,75.72
2022-12-17T10:31:35.267Z,73.93
2022-12-17T10:34:20.455Z,77.78
2022-12-17T10:37:08.660Z,72.53
2022-12-17T10:39:54.085Z,72.95
2022-12-17T10:43:04.544Z,68.05
2022-12-17T10:45:54.637Z,75.20
2022-12-17T10:48:47.072Z,60.00
2022-12-17T10:51:53.624Z,69.88
2022-12-17T10:54:49.870Z,77.18
2022-12-17T10:57:53.429Z,71.97
2022-12-17T11:00:49.142Z,79.50
2022-12-17T11:03:57.106Z,75.80
2022-12-17T11:06:50.806Z,79.35
2022-12-17T11:09:41.897Z,82.65
2022-12-17T11:12:31.289Z,78.38
2022-12-17T11:15:21.885Z,80.65
2022-12-17T11:18:11.685Z,78.13
2022-12-17T11:21:31.619Z,73.13
2022-12-17T11:24:22.688Z,77.97
2022-12-17T11:27:12.656Z,82.55
2022-12-17T11:29:57.933Z,79.07
2022-12-17T11:32:46.278Z,75.82
2022-12-17T11:36:05.143Z,78.97
2022-12-17T11:39:17.708Z,77.22
2022-12-17T11:42:22.573Z,71.65
2022-12-17T11:45:35.513Z,83.68
2022-12-17T11:48:27.140Z,76.78
2022-12-17T11:51:30.484Z,82.80
2022-12-17T11:54:29.800Z,76.47
2022-12-17T11:57:49.002Z,73.70
2022-12-17T12:00:39.085Z,78.40
2022-12-17T12:03:50.478Z,80.93
2022-12-17T12:07:05.356Z,82.43
2022-12-17T12:10:14.682Z,84.95
2022-12-17T12:13:12.563Z,81.25
2022-12-17T12:16:23.239Z,82.03
2022-12-17T12:19:33.989Z,92.30
2022-12-17T12:22:48.627Z,87.47
2022-12-17T12:25:44.199Z,75.93
2022-12-17T12:28:46.318Z,77.13
2022-12-17T12:31:52.128Z,60.83
2022-12-17T12:34:50.474Z,79.63
2022-12-17T12:37:39.158Z,74.78
2022-12-17T12:40:40.761Z,66.45
2022-12-17T12:43:46.915Z,79.07
2022-12-17T12:46:43.129Z,78.57
2022-12-17T12:49:54.069Z,77.93
2022-12-17T12:52:45.284Z,80.63
2022-12-17T12:55:31.810Z,75.63
2022-12-17T12:58:36.473Z,75.63
2022-12-17T13:01:21.663Z,79.15
2022-12-17T13:04:15.346Z,69.10
2022-12-17T13:06:45.627Z,69.85
2022-12-17T13:09:20.640Z,73.72
2022-12-17T13:12:01.448Z,78.63
2022-12-17T13:14:34.734Z,74.30
2022-12-17T13:17:06.016Z,70.20
2022-12-17T13:19:47.395Z,74.85
2022-12-17T13:22:24.000Z,77.10
2022-12-17T13:24:54.703Z,81.60
2022-12-17T13:27:39.494Z,70.50
2022-12-17T13:30:24.178Z,70.68
2022-12-17T13:33:10.024Z,80.45
2022-12-17T13:35:43.426Z,78.68
2022-12-17T13:38:40.864Z,77.88
2022-12-17T13:41:17.732Z,77.13
2022-12-17T13:43:53.769Z,86.47
2022-12-17T13:46:47.503Z,83.57
2022-12-17T13:49:25.808Z,75.60
2022-12-17T13:52:11.693Z,80.32
2022-12-17T13:54:39.888Z,72.88
2022-12-17T13:57:09.335Z,68.53
2022-12-17T13:59:37.400Z,76.55
2022-12-17T14:02:05.107Z,66.05
2022-12-17T14:04:33.616Z,66.93
2022-12-17T14:07:06.259Z,73.35
2022-12-17T14:09:37.895Z,75.15
2022-12-17T14:12:25.711Z,62.70
2022-12-17T14:15:04.748Z,74.85
2022-12-17T14:17:46.302Z,65.38
2022-12-17T14:20:31.996Z,67.20
2022-12-17T14:23:03.960Z,65.75
2022-12-17T14:25:38.001Z,66.75
2022-12-17T14:28:21.977Z,73.57
2022-12-17T14:31:25.547Z,73.63
2022-12-17T14:33:39.287Z,73.80
2022-12-17T14:36:17.976Z,68.45
2022-12-17T14:38:58.437Z,70.65
2022-12-17T14:41:44.554Z,68.95
2022-12-17T14:44:21.884Z,77.55
2022-12-17T14:47:08.383Z,75.47
2022-12-17T14:49:36.199Z,69.68
2022-12-17T14:52:14.259Z,77.63
2022-12-17T14:54:52.842Z,66.07
2022-12-17T14:57:22.844Z,71.43
2022-12-17T14:59:52.459Z,77.93
2022-12-17T15:02:30.929Z,65.63
2022-12-17T15:05:01.887Z,71.68
2022-12-17T15:07:33.184Z,65.75
2022-12-17T15:10:00.687Z,69.47
2022-12-17T15:12:29.073Z,76.43
2022-12-17T15:14:56.607Z,71.53
2022-12-17T15:17:24.146Z,58.00
2022-12-17T15:19:56.073Z,73.40
2022-12-17T15:22:24.378Z,79.03
2022-12-17T15:24:52.244Z,64.78
2022-12-17T15:27:19.923Z,66.85
2022-12-17T15:29:47.664Z,72.65
2022-12-17T15:32:21.063Z,63.63
2022-12-17T15:34:49.186Z,60.00
2022-12-17T15:37:20.970Z,69.30
2022-12-17T15:39:48.712Z,66.68
2022-12-17T15:42:30.062Z,63.13
2022-12-17T15:44:57.604Z,76.97
2022-12-17T15:47:25.263Z,71.43
2022-12-17T15:49:52.842Z,71.00
2022-12-17T15:52:20.418Z,73.45
2022-12-17T15:54:49.294Z,70.68
2022-12-17T15:57:18.721Z,73.40
2022-12-17T15:59:46.674Z,69.65
2022-12-17T16:02:14.319Z,70.30
2022-12-17T16:04:42.013Z,65.53
2022-12-17T16:07:09.818Z,66.72
2022-12-17T16:09:37.340Z,76.38
2022-12-17T16:12:05.016Z,66.88
2022-12-17T16:14:32.476Z,77.35
2022-12-17T16:17:00.008Z,78.38
2022-12-17T16:19:27.770Z,67.53
2022-12-17T16:21:55.252Z,68.13
2022-12-17T16:24:22.833Z,72.90
2022-12-17T16:26:50.348Z,78.57
2022-12-17T16:29:17.917Z,71.22
2022-12-17T16:31:46.174Z,78.47
2022-12-17T16:34:14.671Z,69.07
2022-12-17T16:36:42.995Z,73.47
2022-12-17T16:39:16.425Z,73.63
2022-12-17T16:41:44.116Z,71.68
2022-12-17T16:44:11.805Z,59.97
2022-12-17T16:46:41.494Z,72.78
2022-12-17T16:49:23.243Z,78.10
2022-12-17T16:51:52.696Z,74.60
2022-12-17T16:54:26.107Z,76.82
2022-12-17T16:56:54.297Z,64.30
2022-12-17T16:59:23.243Z,75.85
2022-12-17T17:01:52.645Z,69.18
2022-12-17T17:04:22.812Z,76.38
2022-12-17T17:06:53.050Z,72.35
2022-12-17T17:09:21.306Z,62.35
2022-12-17T17:11:51.859Z,80.20
2022-12-17T17:14:20.016Z,83.70
2022-12-17T17:16:47.541Z,88.15
2022-12-17T17:19:15.089Z,79.72
2022-12-17T17:21:49.730Z,76.13
2022-12-17T17:24:22.523Z,89.85
2022-12-17T17:26:51.442Z,87.18
2022-12-17T17:29:19.385Z,74.65
2022-12-17T17:34:34.592Z,70.28
2022-12-17T17:37:02.112Z,86.30
2022-12-17T17:39:32.953Z,75.68
2022-12-17T17:42:01.008Z,67.25
2022-12-17T17:44:28.554Z,67.25
2022-12-17T17:46:56.181Z,67.75
2022-12-17T17:49:23.824Z,68.53
2022-12-17T17:52:08.939Z,65.10
2022-12-17T17:54:37.285Z,67.22
2022-12-17T17:57:04.887Z,74.15
2022-12-17T17:59:33.979Z,68.03
2022-12-17T18:02:02.493Z,74.55
2022-12-17T18:04:30.792Z,80.95
2022-12-17T18:09:46.444Z,70.25
2022-12-17T18:12:31.236Z,72.93
2022-12-17T18:15:16.742Z,78.57
2022-12-17T18:17:52.093Z,78.05
2022-12-17T18:20:19.958Z,71.20
2022-12-17T18:22:48.029Z,66.60
2022-12-17T18:25:17.770Z,76.00
2022-12-17T18:27:46.426Z,76.15
2022-12-17T18:30:16.303Z,63.33
2022-12-17T18:32:44.416Z,63.17
2022-12-17T18:35:12.483Z,72.35
2022-12-17T18:37:40.451Z,69.45
2022-12-17T18:40:09.248Z,92.85
2022-12-17T18:42:54.838Z,72.85
2022-12-17T18:45:23.449Z,69.78
2022-12-17T18:47:53.323Z,64.13
2022-12-17T18:50:21.299Z,74.30
2022-12-17T18:52:49.461Z,77.38
2022-12-17T18:55:17.843Z,84.05
2022-12-17T18:57:46.123Z,78.10
2022-12-17T19:00:14.923Z,65.65
2022-12-17T19:02:43.368Z,84.40
2022-12-17T19:05:11.599Z,81.95
2022-12-17T19:07:39.889Z,74.30
2022-12-17T19:10:08.136Z,86.05
2022-12-17T19:12:38.961Z,80.63
2022-12-17T19:15:07.447Z,75.78
2022-12-17T19:17:35.411Z,85.25
2022-12-17T19:20:06.881Z,81.07
2022-12-17T19:22:38.020Z,82.93
2022-12-17T19:25:08.946Z,85.30
2022-12-17T19:27:36.815Z,80.75
2022-12-17T19:30:05.204Z,91.75
2022-12-17T19:32:33.477Z,80.90
2022-12-17T19:35:01.544Z,84.65
2022-12-17T19:37:29.411Z,81.35
2022-12-17T19:39:58.529Z,80.53
2022-12-17T19:42:34.986Z,87.20
2022-12-17T19:45:05.105Z,87.75
2022-12-17T19:47:33.067Z,82.38
2022-12-17T19:50:01.142Z,82.03
2022-12-17T19:52:29.109Z,84.50
2022-12-17T19:54:59.552Z,85.70
2022-12-17T19:57:27.510Z,75.07
2022-12-17T19:59:55.374Z,78.00
2022-12-17T20:02:27.037Z,92.35
2022-12-17T20:04:57.767Z,70.85
2022-12-17T20:07:25.774Z,81.50
2022-12-17T20:09:56.266Z,80.22
2022-12-17T20:12:26.294Z,91.07
2022-12-17T20:14:54.062Z,93.10
2022-12-17T20:17:22.326Z,83.88
2022-12-17T20:19:53.381Z,92.45
2022-12-17T20:22:22.614Z,100.72
2022-12-17T20:24:50.323Z,95.95
2022-12-17T20:27:18.099Z,93.93
2022-12-17T20:29:45.738Z,100.88
2022-12-17T20:32:13.352Z,95.20
2022-12-17T20:34:40.977Z,91.07
2022-12-17T20:37:08.499Z,98.80
2022-12-17T20:39:36.115Z,113.53
2022-12-17T20:42:03.600Z,100.32
2022-12-17T20:44:31.120Z,99.78
2022-12-17T20:46:59.403Z,109.70
2022-12-17T20:49:27.039Z,99.57
2022-12-17T20:51:54.595Z,98.68
2022-12-17T20:54:22.337Z,100.35
2022-12-17T20:56:49.967Z,102.57
2022-12-17T20:59:20.088Z,83.43
2022-12-17T21:01:54.283Z,94.35
2022-12-17T21:04:23.923Z,92.57
2022-12-17T21:06:51.567Z,91.50
2022-12-17T21:09:20.857Z,89.80
2022-12-17T21:11:48.561Z,102.60
2022-12-17T21:14:18.383Z,109.28
2022-12-17T21:16:55.286Z,105.43
2022-12-17T21:19:22.810Z,94.78
2022-12-17T21:21:50.587Z,97.90
2022-12-17T21:24:18.154Z,100.40
2022-12-17T21:26:48.019Z,82.72
2022-12-17T21:29:16.139Z,91.80
2022-12-17T21:31:49.398Z,98.85
2022-12-17T21:34:21.977Z,97.20
2022-12-17T21:36:51.183Z,70.60
2022-12-17T21:39:20.315Z,83.40
2022-12-17T21:42:07.989Z,80.03
2022-12-17T21:44:36.634Z,82.05
2022-12-17T21:47:04.561Z,88.90
2022-12-17T21:49:32.600Z,87.63
2022-12-17T21:52:01.468Z,81.93
2022-12-17T21:54:29.127Z,73.32
2022-12-17T21:56:56.734Z,81.93
2022-12-17T21:59:24.379Z,85.40
2022-12-17T22:01:52.226Z,74.07
2022-12-17T22:04:20.072Z,65.93
2022-12-17T22:06:51.498Z,84.72
2022-12-17T22:09:26.840Z,73.70
2022-12-17T22:12:16.784Z,82.72
2022-12-17T22:14:44.545Z,76.82
2022-12-17T22:17:12.130Z,74.35
2022-12-17T22:19:39.670Z,77.13
2022-12-17T22:22:07.217Z,78.47
2022-12-17T22:24:36.289Z,73.35
2022-12-17T22:27:04.170Z,76.18
2022-12-17T22:29:53.557Z,75.75
2022-12-17T22:32:38.655Z,84.10
2022-12-17T22:36:20.380Z,78.13
2022-12-17T22:41:15.050Z,85.18
2022-12-17T22:44:28.595Z,83.03
2022-12-17T22:44:42.342Z,76.72
2022-12-17T22:46:17.595Z,85.88
2022-12-17T22:48:45.445Z,78.88
2022-12-17T22:51:22.181Z,91.75
2022-12-17T22:53:56.788Z,78.70
2022-12-17T22:56:37.256Z,90.15
2022-12-17T22:59:19.316Z,80.63
2022-12-17T23:01:47.223Z,85.50
2022-12-17T23:04:16.587Z,86.05
2022-12-17T23:06:45.899Z,74.63
2022-12-17T23:09:14.557Z,95.03
2022-12-17T23:11:42.079Z,88.25
2022-12-17T23:14:09.618Z,77.28
2022-12-17T23:16:39.645Z,80.57
2022-12-17T23:19:08.213Z,88.85
2022-12-17T23:21:36.511Z,85.43
2022-12-17T23:24:04.655Z,76.25
2022-12-17T23:26:35.084Z,84.30
2022-12-17T23:29:06.214Z,78.70
2022-12-17T23:31:36.994Z,73.43
2022-12-17T23:34:05.849Z,76.15
2022-12-17T23:36:33.419Z,76.00
2022-12-17T23:39:01.485Z,73.40
2022-12-17T23:41:31.180Z,74.40
2022-12-17T23:43:59.843Z,67.65
2022-12-17T23:46:29.399Z,77.55
2022-12-17T23:48:57.117Z,72.43
2022-12-17T23:51:26.686Z,69.80
2022-12-17T23:53:54.273Z,66.07
2022-12-17T23:56:24.660Z,73.63
2022-12-17T23:58:57.321Z,66.25
